Time;durP1;ratioP1;P1;durP2;ratioP2;P2;SDS_P1;SDS_P2;PMS_P1;PMS_P2;Temp;Humidity;BMP_temperature;BMP_pressure;BME280_temperature;BME280_humidity;BME280_pressure;Samples;Min_cycle;Max_cycle;Signal;HPM_P1;HPM_P2
2022/08/01 00:02:01;;;;;;;15.27;3.13;;;;;;;20.41;64.22;100770.28;4830819;29;20472;-57
2022/08/01 00:04:32;;;;;;;11.67;2.90;;;;;;;20.50;63.19;100761.88;4831016;29;20299;-57
2022/08/01 00:07:03;;;;;;;11.70;2.90;;;;;;;20.58;62.92;100754.41;4830994;29;20283;-56
2022/08/01 00:09:34;;;;;;;15.97;3.00;;;;;;;20.78;62.82;100760.53;4830931;29;20291;-53
2022/08/01 00:12:05;;;;;;;15.30;3.20;;;;;;;20.84;63.32;100761.09;4826280;29;20615;-58
2022/08/01 00:14:36;;;;;;;35.73;4.87;;;;;;;20.91;63.43;100756.28;4830154;29;20300;-58
2022/08/01 00:17:08;;;;;;;43.17;5.33;;;;;;;20.94;62.03;100761.44;4829051;29;20363;-57
2022/08/01 00:19:39;;;;;;;18.07;3.60;;;;;;;20.58;61.46;100759.72;4826597;29;20347;-55
2022/08/01 00:22:09;;;;;;;25.10;4.30;;;;;;;20.79;63.31;100756.91;4830123;29;20635;-53
2022/08/01 00:24:40;;;;;;;13.97;3.93;;;;;;;20.83;63.26;100753.19;4830587;29;20783;-55
2022/08/01 00:27:10;;;;;;;23.67;3.60;;;;;;;20.89;62.79;100744.88;4830637;29;20287;-55
2022/08/01 00:29:41;;;;;;;17.43;3.60;;;;;;;20.91;62.03;100740.34;4824923;29;20303;-51
2022/08/01 00:32:34;;;;;;;11.27;3.37;;;;;;;21.05;62.89;100743.16;4816634;29;20289;-56
2022/08/01 00:35:05;;;;;;;18.77;3.70;;;;;;;21.19;62.06;100736.25;4812013;29;20300;-56
2022/08/01 00:37:35;;;;;;;13.97;3.10;;;;;;;21.39;62.29;100729.91;4812058;29;20327;-55
2022/08/01 00:40:07;;;;;;;34.10;3.90;;;;;;;21.52;62.59;100731.81;4811886;29;20375;-52
2022/08/01 00:42:37;;;;;;;76.43;7.07;;;;;;;21.63;62.20;100727.72;4814130;29;20520;-56
2022/08/01 00:45:12;;;;;;;24.60;4.43;;;;;;;21.62;61.18;100710.06;4822044;29;20502;-56
2022/08/01 00:47:45;;;;;;;21.07;3.33;;;;;;;21.57;60.63;100712.09;4830009;29;20291;-55
2022/08/01 00:50:15;;;;;;;14.80;3.17;;;;;;;21.59;60.71;100710.19;4841025;29;20295;-55
2022/08/01 00:52:46;;;;;;;24.27;4.57;;;;;;;21.40;59.93;100710.38;4848128;29;20049;-54
2022/08/01 00:55:21;;;;;;;22.80;3.97;;;;;;;21.57;61.84;100717.41;4847071;29;20069;-56
2022/08/01 00:57:52;;;;;;;14.53;3.63;;;;;;;21.81;61.97;100707.22;4811880;29;20050;-53
2022/08/01 01:00:36;;;;;;;15.73;3.20;;;;;;;22.00;61.69;100707.03;4811625;29;20497;-53
2022/08/01 01:03:24;;;;;;;19.60;3.83;;;;;;;22.13;60.12;100694.75;4811757;29;20215;-55
2022/08/01 01:06:33;;;;;;;23.07;4.23;;;;;;;22.24;60.74;100687.03;4811152;29;20253;-55
2022/08/01 01:09:30;;;;;;;22.67;3.78;;;;;;;22.42;60.34;100701.06;4811824;29;20062;-56
2022/08/01 01:12:10;;;;;;;23.50;4.17;;;;;;;22.35;60.19;100699.72;4821869;29;20055;-55
2022/08/01 01:14:46;;;;;;;10.57;3.23;;;;;;;22.04;59.07;100703.25;4829764;29;20062;-55
2022/08/01 01:17:21;;;;;;;16.90;3.47;;;;;;;21.88;60.93;100698.78;4830068;29;20199;-56
2022/08/01 01:20:15;;;;;;;21.87;3.73;;;;;;;21.83;59.97;100698.19;4829815;29;20110;-53
2022/08/01 01:23:06;;;;;;;19.73;4.20;;;;;;;21.81;61.58;100694.75;4829668;29;20117;-55
2022/08/01 01:25:56;;;;;;;19.73;3.87;;;;;;;21.96;60.81;100688.56;4829697;29;20062;-53
2022/08/01 01:28:43;;;;;;;18.97;3.77;;;;;;;22.11;61.40;100699.28;4829718;29;20062;-55
2022/08/01 01:31:20;;;;;;;20.17;4.10;;;;;;;22.23;60.95;100703.94;4823955;29;20339;-55
2022/08/01 01:33:53;;;;;;;45.87;6.10;;;;;;;22.24;60.02;100703.00;4826275;29;20403;-52
2022/08/01 01:36:26;;;;;;;25.10;4.43;;;;;;;22.30;60.10;100696.47;4826082;29;20058;-51
2022/08/01 01:38:58;;;;;;;30.13;4.50;;;;;;;22.28;60.34;100701.88;4826286;29;20084;-55
2022/08/01 01:41:30;;;;;;;20.93;4.83;;;;;;;22.33;59.99;100686.47;4825343;29;20054;-53
2022/08/01 01:44:03;;;;;;;23.97;4.73;;;;;;;22.52;61.00;100693.41;4825794;29;20219;-56
2022/08/01 01:46:37;;;;;;;13.83;3.43;;;;;;;22.58;59.76;100701.00;4826006;29;20062;-52
2022/08/01 01:49:11;;;;;;;17.97;4.13;;;;;;;22.64;59.36;100695.34;4826082;29;20046;-56
2022/08/01 01:51:43;;;;;;;20.60;3.73;;;;;;;22.73;58.68;100694.75;4825879;29;20063;-54
2022/08/01 01:54:34;;;;;;;15.17;3.80;;;;;;;22.53;58.87;100684.44;4825747;29;20058;-56
2022/08/01 01:57:06;;;;;;;17.13;3.83;;;;;;;22.43;58.59;100685.94;4825991;29;20315;-51
2022/08/01 01:59:40;;;;;;;17.37;3.73;;;;;;;22.45;60.15;100689.38;4825436;29;20065;-53
2022/08/01 02:02:14;;;;;;;23.27;3.63;;;;;;;22.56;58.86;100686.91;4825789;29;20050;-52
2022/08/01 02:04:48;;;;;;;30.43;4.63;;;;;;;22.77;58.67;100685.63;4825585;29;20101;-55
2022/08/01 02:07:25;;;;;;;18.27;3.07;;;;;;;22.90;56.88;100679.56;4828315;29;20066;-50
2022/08/01 02:09:58;;;;;;;12.43;3.20;;;;;;;23.04;56.55;100675.13;4829096;29;20069;-53
2022/08/01 02:12:31;;;;;;;16.50;3.67;;;;;;;23.15;56.94;100673.59;4829521;29;20065;-52
2022/08/01 02:15:03;;;;;;;25.60;4.30;;;;;;;23.34;56.40;100674.19;4828984;29;20050;-53
2022/08/01 02:17:43;;;;;;;20.77;3.40;;;;;;;23.48;56.64;100662.63;4827824;29;20066;-55
2022/08/01 02:20:15;;;;;;;14.30;3.87;;;;;;;23.53;56.54;100659.66;4828636;29;20114;-55
2022/08/01 02:22:51;;;;;;;17.87;4.00;;;;;;;23.66;56.59;100664.13;4828914;29;20062;-53
2022/08/01 02:25:27;;;;;;;12.33;3.07;;;;;;;23.52;54.99;100661.47;4828860;29;20058;-56
2022/08/01 02:28:03;;;;;;;18.70;4.13;;;;;;;23.53;55.42;100644.50;4829335;29;20062;-55
2022/08/01 02:30:36;;;;;;;22.40;9.67;;;;;;;23.65;56.14;100651.72;4828661;29;20046;-56
2022/08/01 02:33:14;;;;;;;11.87;4.17;;;;;;;23.60;55.58;100653.81;4829069;29;20057;-54
2022/08/01 02:35:48;;;;;;;26.63;10.68;;;;;;;23.55;55.57;100655.94;4828893;29;20126;-54
2022/08/01 02:38:44;;;;;;;11.63;4.20;;;;;;;23.68;55.50;100662.19;4829077;29;20058;-54
2022/08/01 02:41:21;;;;;;;20.53;3.83;;;;;;;23.73;54.75;100674.41;4828765;29;20693;-53
2022/08/01 02:43:58;;;;;;;10.53;2.80;;;;;;;23.48;54.56;100638.59;4828648;29;20058;-56
2022/08/01 02:46:35;;;;;;;22.00;3.07;;;;;;;23.98;55.02;100682.50;4828916;29;20183;-57
2022/08/01 02:49:10;;;;;;;15.80;3.10;;;;;;;23.95;54.08;100669.38;4828662;29;20058;-53
2022/08/01 02:51:42;;;;;;;17.83;2.60;;;;;;;23.99;53.83;100654.88;4828277;29;20357;-56
2022/08/01 02:54:13;;;;;;;27.87;4.33;;;;;;;24.03;54.75;100661.72;4828806;29;20050;-55
2022/08/01 02:56:46;;;;;;;14.53;3.03;;;;;;;24.14;54.13;100670.81;4828602;29;20046;-56
2022/08/01 02:59:20;;;;;;;8.27;2.97;;;;;;;24.04;53.32;100673.28;4828514;29;20050;-52
2022/08/01 03:01:51;;;;;;;13.60;3.30;;;;;;;23.86;54.13;100664.63;4828297;29;20118;-56
2022/08/01 03:04:27;;;;;;;14.30;3.33;;;;;;;23.95;55.84;100664.03;4828802;29;20082;-56
2022/08/01 03:06:59;;;;;;;14.10;3.50;;;;;;;23.94;54.98;100657.00;4828683;29;20061;-57
2022/08/01 03:09:33;;;;;;;13.53;3.07;;;;;;;23.89;55.25;100649.28;4828521;29;20226;-51
2022/08/01 03:12:08;;;;;;;20.20;3.60;;;;;;;23.99;55.00;100648.66;4828175;29;20053;-54
2022/08/01 03:14:41;;;;;;;20.27;3.43;;;;;;;23.99;56.31;100633.53;4828044;29;20066;-58
2022/08/01 03:17:12;;;;;;;21.03;4.07;;;;;;;24.14;55.51;100646.78;4827879;29;20346;-56
2022/08/01 03:19:48;;;;;;;35.33;4.60;;;;;;;24.03;56.07;100648.38;4828298;29;20208;-54
2022/08/01 03:22:22;;;;;;;17.20;3.87;;;;;;;23.94;55.38;100640.09;4828111;29;20150;-54
2022/08/01 03:24:55;;;;;;;26.70;4.17;;;;;;;23.58;56.49;100623.72;4828554;29;20378;-56
2022/08/01 03:27:27;;;;;;;14.43;3.23;;;;;;;23.53;56.76;100644.50;4828119;29;20299;-54
2022/08/01 03:29:59;;;;;;;19.40;3.67;;;;;;;23.32;57.30;100616.56;4828265;29;20296;-55
2022/08/01 03:32:31;;;;;;;28.20;4.80;;;;;;;23.43;57.64;100638.06;4828280;29;20237;-52
2022/08/01 03:35:04;;;;;;;28.30;4.20;;;;;;;23.48;58.30;100638.59;4828092;29;20046;-53
2022/08/01 03:37:38;;;;;;;21.33;3.50;;;;;;;23.49;58.02;100629.66;4827737;29;20058;-53
2022/08/01 03:40:37;;;;;;;17.60;3.47;;;;;;;23.34;58.72;100636.84;4828167;29;20324;-58
2022/08/01 03:43:12;;;;;;;21.27;4.45;;;;;;;23.23;59.03;100640.16;4827797;29;20046;-56
2022/08/01 03:45:47;;;;;;;12.63;3.37;;;;;;;23.18;58.43;100631.59;4827580;29;20319;-53
2022/08/01 03:48:20;;;;;;;18.27;3.70;;;;;;;23.36;59.68;100634.91;4827718;29;20192;-55
2022/08/01 03:50:54;;;;;;;18.33;4.30;;;;;;;23.47;59.39;100644.91;4827388;29;20119;-55
2022/08/01 03:53:27;;;;;;;11.60;3.17;;;;;;;23.33;58.92;100636.94;4827462;29;20058;-55
2022/08/01 03:56:00;;;;;;;12.77;3.03;;;;;;;23.28;59.04;100626.56;4827889;29;20111;-53
2022/08/01 03:58:31;;;;;;;17.47;4.03;;;;;;;23.13;58.99;100633.72;4827672;29;20323;-56
2022/08/01 04:01:02;;;;;;;18.67;3.40;;;;;;;22.93;58.96;100631.41;4827412;29;20164;-50
2022/08/01 04:03:33;;;;;;;19.63;3.73;;;;;;;22.66;59.21;100634.81;4827532;29;20058;-55
2022/08/01 04:06:22;;;;;;;;;;;;;;;22.34;59.97;100634.97;4827890;29;20066;-54
2022/08/01 04:09:02;;;;;;;18.10;3.20;;;;;;;22.18;60.79;100623.47;4827134;29;19933;-58
2022/08/01 04:11:33;;;;;;;14.20;3.30;;;;;;;21.95;61.58;100633.66;4827411;29;20319;-54
2022/08/01 04:14:03;;;;;;;13.03;4.00;;;;;;;21.79;61.69;100619.53;4827353;29;20069;-54
2022/08/01 04:16:38;;;;;;;16.60;3.37;;;;;;;21.78;61.94;100620.47;4826984;29;20058;-56
2022/08/01 04:19:09;;;;;;;17.67;2.77;;;;;;;21.82;61.84;100605.22;4826591;29;20393;-56
2022/08/01 04:21:41;;;;;;;20.00;3.50;;;;;;;22.05;61.48;100622.47;4826979;29;20062;-54
2022/08/01 04:24:18;;;;;;;15.43;3.43;;;;;;;22.28;60.34;100606.03;4826776;29;20058;-53
2022/08/01 04:26:51;;;;;;;50.67;5.27;;;;;;;22.49;61.02;100600.34;4827268;29;20095;-54
2022/08/01 04:29:24;;;;;;;18.90;4.33;;;;;;;22.65;60.18;100603.81;4826263;29;20058;-54
2022/08/01 04:31:56;;;;;;;21.17;4.07;;;;;;;22.77;59.62;100605.72;4827281;29;20054;-56
2022/08/01 04:34:30;;;;;;;19.53;3.40;;;;;;;22.56;59.58;100585.72;4827079;29;20061;-56
2022/08/01 04:37:03;;;;;;;10.97;2.80;;;;;;;22.65;60.92;100595.81;4827010;29;20062;-55
2022/08/01 04:39:38;;;;;;;18.20;3.53;;;;;;;22.66;59.29;100594.84;4826717;29;20218;-52
2022/08/01 04:42:20;;;;;;;45.60;5.63;;;;;;;22.64;59.58;100588.78;4826839;29;20120;-56
2022/08/01 04:44:58;;;;;;;39.53;4.40;;;;;;;22.75;59.86;100586.31;4827341;29;20070;-53
2022/08/01 04:47:29;;;;;;;18.40;3.70;;;;;;;22.69;58.55;100596.47;4827056;29;20066;-54
2022/08/01 04:50:00;;;;;;;33.50;4.37;;;;;;;22.44;59.15;100582.03;4826622;29;20086;-51
2022/08/01 04:52:38;;;;;;;16.53;3.50;;;;;;;22.32;59.97;100577.44;4826129;29;20062;-55
2022/08/01 04:55:09;;;;;;;17.73;3.50;;;;;;;22.36;59.47;100577.13;4825701;29;20272;-56
2022/08/01 04:57:42;;;;;;;41.43;5.13;;;;;;;22.32;59.68;100567.63;4826825;29;20390;-57
2022/08/01 05:00:14;;;;;;;44.23;5.23;;;;;;;22.19;59.37;100577.28;4827052;29;20179;-56
2022/08/01 05:02:44;;;;;;;15.23;3.40;;;;;;;22.11;60.91;100574.22;4826375;29;20103;-52
2022/08/01 05:05:15;;;;;;;22.23;3.57;;;;;;;21.86;61.27;100570.31;4826613;29;20103;-54
2022/08/01 05:07:47;;;;;;;22.70;3.90;;;;;;;21.80;61.73;100575.16;4826429;29;20050;-56
2022/08/01 05:10:18;;;;;;;13.50;3.13;;;;;;;21.87;62.44;100566.75;4826327;29;20038;-55
2022/08/01 05:12:48;;;;;;;16.27;3.20;;;;;;;21.92;61.82;100559.34;4826175;29;20236;-55
2022/08/01 05:15:19;;;;;;;14.60;4.17;;;;;;;21.91;62.28;100562.94;4826156;29;20046;-52
2022/08/01 05:17:49;;;;;;;21.50;3.50;;;;;;;22.06;61.41;100565.63;4824497;29;20046;-56
2022/08/01 05:20:20;;;;;;;20.07;4.40;;;;;;;22.03;60.75;100561.34;4825627;29;20050;-58
2022/08/01 05:22:52;;;;;;;34.03;4.17;;;;;;;22.01;61.05;100562.41;4825683;29;20062;-56
2022/08/01 05:25:23;;;;;;;24.03;3.77;;;;;;;21.85;61.06;100565.97;4826046;29;20226;-53
2022/08/01 05:28:14;;;;;;;19.97;3.50;;;;;;;21.76;61.53;100555.84;4825420;29;20058;-54
2022/08/01 05:30:48;;;;;;;20.57;3.47;;;;;;;21.94;62.06;100562.78;4825895;29;20307;-54
2022/08/01 05:33:20;;;;;;;22.13;3.73;;;;;;;21.89;61.36;100554.22;4826095;29;20433;-54
2022/08/01 05:35:51;;;;;;;23.40;3.50;;;;;;;21.84;61.05;100548.31;4826212;29;20279;-56
2022/08/01 05:38:23;;;;;;;24.83;3.83;;;;;;;21.70;61.20;100553.56;4825791;29;20345;-53
2022/08/01 05:40:54;;;;;;;18.33;3.50;;;;;;;21.52;61.51;100545.72;4826419;29;20072;-53
2022/08/01 05:43:24;;;;;;;17.37;3.50;;;;;;;21.37;61.12;100551.88;4829202;29;20058;-54
2022/08/01 05:45:58;;;;;;;16.37;3.27;;;;;;;21.09;62.23;100561.41;4829127;29;20311;-55
2022/08/01 05:48:28;;;;;;;14.07;3.40;;;;;;;21.00;62.95;100569.00;4829122;29;20317;-56
2022/08/01 05:50:59;;;;;;;16.03;3.10;;;;;;;20.85;63.08;100571.56;4829842;29;20481;-57
2022/08/01 05:53:34;;;;;;;16.03;3.60;;;;;;;20.76;63.63;100561.41;4829801;29;20306;-55
2022/08/01 05:56:04;;;;;;;16.10;3.23;;;;;;;20.72;63.72;100543.06;4829660;29;20302;-56
2022/08/01 05:58:35;;;;;;;15.93;3.80;;;;;;;20.78;63.86;100540.09;4829466;29;20576;-58
2022/08/01 06:01:06;;;;;;;16.50;3.77;;;;;;;20.78;63.90;100542.75;4829320;29;20487;-50
2022/08/01 06:03:36;;;;;;;19.83;3.40;;;;;;;20.76;64.05;100534.88;4828768;29;20307;-55
2022/08/01 06:06:07;;;;;;;23.10;4.30;;;;;;;20.80;63.46;100519.63;4827993;29;20655;-55
2022/08/01 06:08:39;;;;;;;15.50;3.53;;;;;;;20.88;64.39;100518.25;4829208;29;20636;-55
2022/08/01 06:11:10;;;;;;;14.30;3.63;;;;;;;20.87;64.03;100513.91;4829677;29;20322;-56
2022/08/01 06:13:42;;;;;;;15.83;3.63;;;;;;;20.99;64.60;100519.47;4828388;29;20595;-52
2022/08/01 06:16:17;;;;;;;14.37;3.33;;;;;;;21.08;63.28;100532.25;4828920;29;20307;-55
2022/08/01 06:18:48;;;;;;;13.73;3.03;;;;;;;20.97;64.17;100527.53;4828964;29;20462;-57
2022/08/01 06:21:23;;;;;;;16.07;3.50;;;;;;;20.86;63.83;100529.91;4828862;29;20631;-53
2022/08/01 06:23:55;;;;;;;20.50;3.53;;;;;;;20.76;64.11;100534.03;4829072;29;20315;-54
2022/08/01 06:26:26;;;;;;;26.63;3.77;;;;;;;20.63;64.20;100524.06;4829009;29;20323;-53
2022/08/01 06:28:57;;;;;;;26.50;4.33;;;;;;;20.70;65.17;100513.97;4828866;29;20629;-55
2022/08/01 06:31:27;;;;;;;18.20;4.37;;;;;;;20.92;65.22;100518.97;4828853;29;20296;-54
2022/08/01 06:34:02;;;;;;;42.83;5.67;;;;;;;21.01;64.84;100529.06;4828763;29;20371;-53
2022/08/01 06:36:33;;;;;;;14.33;3.20;;;;;;;20.83;63.53;100530.09;4829150;29;20298;-53
2022/08/01 06:39:05;;;;;;;16.97;3.90;;;;;;;20.73;64.04;100534.19;4828720;29;20302;-54
2022/08/01 06:41:36;;;;;;;19.90;3.77;;;;;;;20.66;64.47;100523.88;4828797;29;20294;-52
2022/08/01 06:44:07;;;;;;;19.23;3.67;;;;;;;20.63;64.94;100508.13;4828525;29;20614;-54
2022/08/01 06:46:37;;;;;;;17.10;3.83;;;;;;;20.74;65.21;100515.50;4828351;29;20310;-52
2022/08/01 06:49:08;;;;;;;14.67;3.40;;;;;;;20.71;64.32;100514.81;4828393;29;20382;-56
2022/08/01 06:51:39;;;;;;;13.70;3.57;;;;;;;20.57;64.64;100521.75;4827402;29;20338;-56
2022/08/01 06:54:11;;;;;;;17.63;3.33;;;;;;;20.47;65.08;100523.16;4828077;29;20367;-55
2022/08/01 06:56:42;;;;;;;21.50;4.20;;;;;;;20.28;65.37;100517.09;4828124;29;20298;-55
2022/08/01 06:59:12;;;;;;;14.67;3.37;;;;;;;20.21;66.35;100514.75;4828131;29;20296;-53
2022/08/01 07:01:43;;;;;;;26.27;3.80;;;;;;;20.10;66.07;100525.06;4827985;29;20299;-53
2022/08/01 07:04:14;;;;;;;18.83;3.33;;;;;;;20.04;66.69;100509.47;4827796;29;20379;-53
2022/08/01 07:06:44;;;;;;;15.53;3.67;;;;;;;20.07;67.10;100511.97;4827854;29;20295;-53
2022/08/01 07:09:17;;;;;;;14.23;3.10;;;;;;;20.06;67.08;100506.75;4828292;29;20300;-54
2022/08/01 07:11:47;;;;;;;29.27;4.80;;;;;;;20.08;67.10;100520.78;4827811;29;20306;-54
2022/08/01 07:14:18;;;;;;;20.60;3.80;;;;;;;20.16;67.17;100521.25;4828041;29;20350;-53
2022/08/01 07:16:49;;;;;;;26.83;3.83;;;;;;;20.17;65.90;100513.22;4828063;29;20295;-54
2022/08/01 07:19:20;;;;;;;16.40;3.47;;;;;;;20.11;66.39;100526.78;4827730;29;20314;-54
2022/08/01 07:21:51;;;;;;;33.40;5.00;;;;;;;19.97;66.87;100524.84;4827628;29;20312;-52
2022/08/01 07:24:24;;;;;;;14.43;3.43;;;;;;;19.82;66.92;100523.84;4827977;29;20919;-53
2022/08/01 07:26:57;;;;;;;22.67;4.13;;;;;;;19.68;67.16;100523.66;4827575;29;20303;-54
2022/08/01 07:29:48;;;;;;;20.50;3.30;;;;;;;19.50;67.39;100520.13;4827559;29;20469;-55
2022/08/01 07:32:19;;;;;;;27.70;4.10;;;;;;;19.40;68.14;100509.09;4827405;29;20287;-54
2022/08/01 07:34:49;;;;;;;24.17;4.20;;;;;;;19.31;68.31;100514.84;4827788;29;20608;-55
2022/08/01 07:37:20;;;;;;;15.10;3.67;;;;;;;19.29;68.57;100522.00;4827641;29;20403;-52
2022/08/01 07:40:13;;;;;;;27.73;4.13;;;;;;;19.15;67.89;100527.13;4828002;29;20577;-55
2022/08/01 07:42:44;;;;;;;16.43;4.17;;;;;;;19.06;68.25;100531.06;4827468;29;20545;-53
2022/08/01 07:45:15;;;;;;;24.27;4.07;;;;;;;18.84;68.40;100536.50;4826950;29;20300;-50
2022/08/01 07:47:46;;;;;;;26.50;6.33;;;;;;;18.74;69.30;100535.19;4826704;29;20643;-55
2022/08/01 07:50:17;;;;;;;38.63;4.70;;;;;;;18.51;69.80;100507.97;4826743;29;20279;-54
2022/08/01 07:52:48;;;;;;;25.30;4.77;;;;;;;18.64;70.13;100528.59;4827011;29;20311;-54
2022/08/01 07:55:20;;;;;;;19.03;4.00;;;;;;;18.67;70.22;100520.50;4827162;29;20296;-53
2022/08/01 07:57:51;;;;;;;20.20;4.23;;;;;;;18.54;70.41;100518.41;4827380;29;20370;-55
2022/08/01 08:00:22;;;;;;;19.33;3.70;;;;;;;18.41;70.10;100506.66;4827150;29;20460;-52
2022/08/01 08:02:53;;;;;;;25.23;4.50;;;;;;;18.32;70.83;100507.06;4826724;29;20353;-55
2022/08/01 08:05:24;;;;;;;16.20;3.33;;;;;;;18.27;71.23;100514.34;4826992;29;20306;-55
2022/08/01 08:08:16;;;;;;;31.20;4.50;;;;;;;18.20;71.52;100507.66;4826884;29;20351;-53
2022/08/01 08:10:52;;;;;;;39.87;4.37;;;;;;;18.05;71.98;100504.75;4826937;29;20850;-55
2022/08/01 08:13:23;;;;;;;19.13;4.60;;;;;;;18.04;72.05;100523.31;4827156;29;20284;-52
2022/08/01 08:15:53;;;;;;;16.43;4.07;;;;;;;18.02;72.53;100528.69;4826862;29;20297;-53
2022/08/01 08:18:26;;;;;;;16.97;4.33;;;;;;;17.95;72.78;100535.16;4826626;29;20288;-56
2022/08/01 08:20:57;;;;;;;35.93;5.47;;;;;;;17.91;73.37;100538.84;4826517;29;20553;-55
2022/08/01 08:26:25;;;;;;;17.67;4.40;;;;;;;17.84;73.53;100526.78;4826704;29;20288;-54
2022/08/01 08:28:57;;;;;;;45.30;6.10;;;;;;;17.77;73.66;100533.22;4826658;29;20319;-54
2022/08/01 08:31:27;;;;;;;20.23;4.00;;;;;;;17.59;73.88;100541.00;4824974;29;20607;-56
2022/08/01 08:34:18;;;;;;;35.53;5.77;;;;;;;17.51;74.44;100537.81;4825688;29;20296;-55
2022/08/01 08:36:50;;;;;;;31.43;7.97;;;;;;;17.52;74.59;100526.31;4825881;29;20303;-51
2022/08/01 08:39:21;;;;;;;21.17;5.57;;;;;;;17.48;74.86;100524.75;4826647;29;20284;-52
2022/08/01 08:41:53;;;;;;;12.93;4.77;;;;;;;17.24;75.29;100498.38;4826349;29;20464;-54
2022/08/01 08:44:24;;;;;;;29.97;5.80;;;;;;;17.34;75.25;100503.31;4826587;29;20415;-55
2022/08/01 08:46:55;;;;;;;27.10;5.30;;;;;;;17.30;75.18;100509.63;4826271;29;20287;-53
2022/08/01 08:49:29;;;;;;;20.37;5.90;;;;;;;17.31;75.18;100490.22;4826199;29;20402;-54
2022/08/01 08:52:06;;;;;;;20.77;5.15;;;;;;;17.23;75.47;100483.47;4826781;29;20588;-52
2022/08/01 08:54:39;;;;;;;29.10;5.50;;;;;;;17.17;75.87;100486.38;4826965;29;20343;-53
2022/08/01 08:57:15;;;;;;;18.63;7.37;;;;;;;17.17;75.68;100489.00;4826303;29;20304;-50
2022/08/01 08:59:46;;;;;;;27.50;6.60;;;;;;;17.01;75.85;100488.75;4826407;29;20363;-51
2022/08/01 09:02:16;;;;;;;24.40;7.90;;;;;;;16.97;76.21;100491.56;4826517;29;20343;-54
2022/08/01 09:04:49;;;;;;;21.07;5.97;;;;;;;16.81;76.48;100497.44;4826064;29;20315;-52
2022/08/01 09:07:20;;;;;;;18.83;9.17;;;;;;;16.75;76.87;100508.22;4826130;29;20290;-51
2022/08/01 09:09:50;;;;;;;23.90;8.63;;;;;;;16.69;77.29;100505.78;4826441;29;20303;-57
2022/08/01 09:12:24;;;;;;;35.37;7.20;;;;;;;16.65;77.43;100500.69;4826543;29;20527;-54
2022/08/01 09:14:54;;;;;;;25.00;7.20;;;;;;;16.62;77.21;100501.66;4825667;29;20591;-56
2022/08/01 09:17:25;;;;;;;20.67;8.53;;;;;;;16.58;77.49;100500.06;4826146;29;20559;-56
2022/08/01 09:19:57;;;;;;;27.10;13.83;;;;;;;16.55;77.64;100505.47;4826326;29;20299;-53
2022/08/01 09:22:28;;;;;;;24.27;12.80;;;;;;;16.51;77.79;100509.13;4826395;29;20587;-54
2022/08/01 09:25:03;;;;;;;26.77;9.30;;;;;;;16.36;78.18;100500.00;4826491;29;20316;-58
2022/08/01 09:27:37;;;;;;;15.90;6.27;;;;;;;16.37;78.25;100506.97;4825783;29;20303;-57
2022/08/01 09:30:17;;;;;;;28.57;7.67;;;;;;;16.17;78.31;100494.50;4826178;29;20279;-54
2022/08/01 09:32:56;;;;;;;21.03;7.27;;;;;;;16.23;78.50;100515.41;4825939;29;20316;-56
2022/08/01 09:35:31;;;;;;;31.97;7.43;;;;;;;16.05;78.70;100505.50;4826357;29;20295;-57
2022/08/01 09:38:16;;;;;;;29.13;7.57;;;;;;;16.02;79.13;100516.16;4825992;29;20283;-56
2022/08/01 09:40:51;;;;;;;28.07;7.57;;;;;;;15.86;79.31;100492.09;4826233;29;20295;-57
2022/08/01 09:43:25;;;;;;;22.80;7.50;;;;;;;15.94;79.60;100514.63;4826242;29;20660;-58
2022/08/01 09:45:57;;;;;;;22.73;8.00;;;;;;;15.83;79.54;100506.25;4825972;29;20307;-54
2022/08/01 09:48:28;;;;;;;20.90;8.87;;;;;;;15.98;79.58;100525.09;4826139;29;20350;-56
2022/08/01 09:51:00;;;;;;;39.57;10.90;;;;;;;15.95;79.90;100519.00;4826378;29;20299;-56
2022/08/01 09:53:47;;;;;;;18.30;8.77;;;;;;;15.89;80.04;100521.84;4825838;29;20311;-55
2022/08/01 09:56:22;;;;;;;89.27;13.37;;;;;;;15.86;80.22;100521.09;4825844;29;20245;-57
2022/08/01 09:58:57;;;;;;;24.17;9.43;;;;;;;15.92;80.26;100511.19;4825784;29;20292;-54
2022/08/01 10:01:43;;;;;;;25.07;15.20;;;;;;;15.74;80.57;100496.00;4825612;29;20297;-56
2022/08/01 10:04:15;;;;;;;29.27;16.33;;;;;;;15.81;80.72;100505.44;4825774;29;20307;-57
2022/08/01 10:06:52;;;;;;;31.57;17.67;;;;;;;15.76;80.80;100502.09;4825714;29;20456;-55
2022/08/01 10:09:30;;;;;;;25.20;15.50;;;;;;;15.74;81.16;100511.81;4825226;29;20457;-56
2022/08/01 10:12:10;;;;;;;19.63;9.03;;;;;;;15.70;81.29;100520.72;4825591;29;20718;-55
2022/08/01 10:14:47;;;;;;;20.70;10.83;;;;;;;15.74;81.53;100522.38;4825237;29;20384;-54
2022/08/01 10:17:20;;;;;;;35.57;13.07;;;;;;;15.73;81.39;100510.97;4825686;29;20298;-54
2022/08/01 10:19:54;;;;;;;32.13;18.77;;;;;;;15.46;81.60;100469.72;4824719;29;20619;-52
2022/08/01 10:22:33;;;;;;;29.03;13.83;;;;;;;15.72;81.62;100504.00;4825314;29;20563;-54
2022/08/01 10:25:06;;;;;;;31.17;14.97;;;;;;;15.68;81.66;100501.47;4825046;29;20546;-56
2022/08/01 10:27:40;;;;;;;33.43;17.30;;;;;;;15.65;81.77;100507.72;4826825;29;20307;-57
2022/08/01 10:30:13;;;;;;;27.43;11.67;;;;;;;15.64;81.99;100505.97;4827975;29;20367;-55
2022/08/01 10:32:53;;;;;;;26.43;11.43;;;;;;;15.64;82.01;100505.13;4828103;29;20296;-57
2022/08/01 10:35:24;;;;;;;38.83;11.90;;;;;;;15.62;82.24;100509.56;4828296;29;20340;-55
2022/08/01 10:38:16;;;;;;;34.07;11.17;;;;;;;15.54;82.46;100504.56;4828430;29;20310;-53
2022/08/01 10:40:47;;;;;;;29.57;9.87;;;;;;;15.48;83.05;100504.78;4828729;29;20448;-55
2022/08/01 10:43:18;;;;;;;39.63;9.67;;;;;;;15.46;83.02;100502.16;4828715;29;20287;-57
2022/08/01 10:45:53;;;;;;;22.73;10.13;;;;;;;15.50;83.14;100514.34;4828498;29;20311;-54
2022/08/01 10:48:31;;;;;;;34.73;17.17;;;;;;;15.57;83.10;100520.25;4828405;29;20291;-57
2022/08/01 10:51:06;;;;;;;26.03;19.03;;;;;;;15.57;83.07;100519.38;4828588;29;20352;-57
2022/08/01 10:53:53;;;;;;;37.50;18.80;;;;;;;15.54;83.20;100520.34;4828091;29;20307;-52
2022/08/01 10:56:26;;;;;;;35.87;16.50;;;;;;;15.52;83.46;100515.16;4828324;29;20295;-54
2022/08/01 10:59:05;;;;;;;23.93;15.90;;;;;;;15.53;83.73;100523.91;4828243;29;20287;-58
2022/08/01 11:01:42;;;;;;;19.37;10.60;;;;;;;15.53;83.71;100518.66;4828426;29;20320;-55
2022/08/01 11:04:15;;;;;;;23.13;10.63;;;;;;;15.54;83.65;100521.22;4827648;29;20352;-55
2022/08/01 11:07:05;;;;;;;17.20;9.87;;;;;;;15.47;83.74;100503.03;4827791;29;20462;-57
2022/08/01 11:09:43;;;;;;;23.63;12.50;;;;;;;15.56;83.45;100507.16;4828080;29;20483;-56
2022/08/01 11:12:20;;;;;;;27.40;14.47;;;;;;;15.54;83.50;100510.69;4827789;29;20371;-55
2022/08/01 11:15:27;;;;;;;25.77;17.30;;;;;;;15.48;83.58;100508.25;4828291;29;20584;-56
2022/08/01 11:18:33;;;;;;;38.10;15.63;;;;;;;15.41;83.53;100504.09;4772070;30;20445;-57
2022/08/01 11:21:06;;;;;;;28.53;14.50;;;;;;;15.34;83.54;100506.97;4771678;30;20288;-56
2022/08/01 11:23:57;;;;;;;29.73;16.63;;;;;;;15.28;83.47;100513.31;4822470;29;20361;-57
2022/08/01 11:26:28;;;;;;;33.10;22.40;;;;;;;15.24;83.48;100507.25;4827910;29;20319;-55
2022/08/01 11:29:18;;;;;;;33.63;23.37;;;;;;;15.21;83.61;100517.03;4828229;29;20291;-55
2022/08/01 11:31:53;;;;;;;36.50;21.67;;;;;;;15.09;83.57;100505.97;4827861;29;20364;-56
2022/08/01 11:35:01;;;;;;;25.20;14.63;;;;;;;15.14;83.75;100510.25;4827713;29;20311;-53
2022/08/01 11:37:37;;;;;;;27.88;13.43;;;;;;;15.12;83.81;100504.16;4825520;29;20330;-54
2022/08/01 11:40:18;;;;;;;23.47;12.70;;;;;;;15.09;83.62;100498.06;4828196;29;20072;-56
2022/08/01 11:42:53;;;;;;;24.03;10.73;;;;;;;15.10;83.48;100505.09;4827773;29;20661;-56
2022/08/01 11:45:44;;;;;;;46.47;11.27;;;;;;;15.09;83.43;100505.97;4827547;29;20509;-57
2022/08/01 11:48:21;;;;;;;19.67;9.50;;;;;;;15.00;83.28;100498.38;4827941;29;20288;-57
2022/08/01 11:50:57;;;;;;;19.33;9.00;;;;;;;14.93;83.64;100506.53;4827934;29;20307;-56
2022/08/01 11:53:33;;;;;;;15.20;9.77;;;;;;;14.89;83.75;100495.22;4827465;29;20574;-57
2022/08/01 11:56:05;;;;;;;32.67;16.27;;;;;;;14.84;83.97;100497.97;4827698;29;20299;-54